• Join FlightAware (Why Join?)
  • Login
  • US Flag 
06:48PM EDT


 

Airport Tracker/Info


-or-


 

Live Flight TrackerFlight Track Log ✈ N711VM ✈ 28-Aug-2013 ✈ KFMY - KTYS

Flight Track Log - Related Links

Times and Time Zones

All times are in EDT time to prevent confusion due to time zone crossing. See the N711VM flight status page for this flight to view local times or setup timezone preferences in your user account.

Time Position Orientation Groundspeed Altitude Reporting Facility
EDT Latitude Longitude Course Direction KTS MPH feet Rate Location/Type
01:41PM 26.6581 -81.8189 355° North 190 219 3,300  Level Miami Center
01:42PM 26.7031 -81.8486 329° Northwest 185 213 5,100 1,800 Climbing Miami Center
01:43PM 26.7436 -81.8853 321° Northwest 190 219 6,900 1,680 Climbing Miami Center
01:44PM 26.7861 -81.9219 322° Northwest 202 232 8,500 1,500 Climbing Miami Center
01:45PM 26.8264 -81.9633 317° Northwest 197 227 10,000 1,320 Climbing Miami Center
01:46PM 27.0104 -81.8677 355° North  Level FlightAware Approximate
01:46PM 26.8733 -81.9933 330° Northwest 192 221 11,200  Level Miami Center
01:47PM 27.0814 -81.8748 355° North  Level FlightAware Approximate
01:47PM 26.9222 -82.0281 328° Northwest 204 235 12,200  Level Miami Center
01:48PM 26.9731 -82.0653 327° Northwest 204 235 13,200 1,080 Climbing Miami Center
01:49PM 27.0258 -82.1025 328° Northwest 209 241 14,400 1,020 Climbing Miami Center
01:50PM 27.0861 -82.1100 354° North 209 241 15,300 900 Climbing Miami Center
01:51PM 27.1467 -82.1128 358° North 209 241 16,300 840 Climbing Miami Center
01:52PM 27.2050 -82.1178 356° North 209 241 17,000 720 Climbing Miami Center
01:53PM 27.2633 -82.1181 360° North 209 241 17,800 480 Climbing Miami Center
01:54PM 27.3069 -82.1200 358° North 209 241 18,000 300 Climbing Miami Center
01:55PM 27.3822 -82.1164 North 219 252 18,400 360 Climbing Miami Center
01:56PM 27.4447 -82.1194 358° North 219 252 18,800 420 Climbing Miami Center
01:57PM 27.5053 -82.1175 North 219 252 19,300 420 Climbing Miami Center
01:58PM 27.5597 -82.1153 North 213 245 19,700 420 Climbing Miami Center
01:59PM 27.6206 -82.1064 North 218 251 20,200 420 Climbing Miami Center
02:00PM 27.6878 -82.0978 North 218 251 20,600 360 Climbing Miami Center
02:01PM 27.7486 -82.0886 North 218 251 21,000 360 Climbing Miami Center
02:03PM 27.8656 -82.0711 North 236 272 21,700 300 Climbing Jacksonville Center
02:04PM 27.9219 -82.0633 North 231 266 22,000 180 Climbing Jacksonville Center
02:05PM 27.9867 -82.0536 North 226 260 22,100  Climbing Jacksonville Center
02:06PM 28.0511 -82.0414 10° North 226 260 22,100  Level Jacksonville Center
02:07PM 28.1136 -82.0361 North 226 260 22,100  Level Jacksonville Center
02:08PM 28.1725 -82.0803 327° Northwest 226 260 22,100  Level Jacksonville Center
02:09PM 28.2269 -82.1317 320° Northwest 232 267 22,100  Level Jacksonville Center
02:10PM 28.2836 -82.1783 324° Northwest 245 282 22,100  Level Jacksonville Center
02:11PM 28.3422 -82.2253 325° Northwest 251 289 22,100  Level Jacksonville Center
02:12PM 28.3989 -82.2719 324° Northwest 251 289 22,100  Level Jacksonville Center
02:13PM 28.4575 -82.3189 325° Northwest 251 289 22,100  Level Jacksonville Center
02:14PM 28.5142 -82.3681 323° Northwest 251 289 22,100  Level Jacksonville Center
02:15PM 28.5706 -82.4150 324° Northwest 251 289 22,100  Level Jacksonville Center
02:16PM 28.6292 -82.4619 325° Northwest 251 289 22,100  Level Jacksonville Center
02:17PM 28.6961 -82.4856 343° North 245 282 22,100  Level Jacksonville Center
02:18PM 28.7608 -82.5114 341° North 245 282 22,100  Level Jacksonville Center
02:19PM 28.8278 -82.5347 343° North 245 282 22,100  Level Jacksonville Center
02:20PM 28.8944 -82.5417 355° North 245 282 22,100  Level Jacksonville Center
02:21PM 28.9614 -82.5581 348° North 239 275 22,100  Level Jacksonville Center
02:22PM 29.0281 -82.5672 353° North 239 275 22,100  Level Jacksonville Center
02:23PM 29.0950 -82.5789 351° North 239 275 22,100  Level Jacksonville Center
02:24PM 29.1617 -82.5906 351° North 239 275 22,100  Level Jacksonville Center
02:25PM 29.2264 -82.6022 351° North 239 275 22,100 240 Level Jacksonville Center
02:26PM 29.2892 -82.6211 345° North 239 275 22,600 360 Climbing Jacksonville Center
02:27PM 29.3497 -82.6328 350° North 229 264 22,900 300 Climbing Jacksonville Center
02:28PM 29.4103 -82.6469 348° North 223 257 23,200 300 Climbing Jacksonville Center
02:29PM 29.4708 -82.6564 352° North 218 251 23,600 420 Climbing Jacksonville Center
02:30PM 29.5314 -82.6706 348° North 218 251 24,100 240 Climbing Jacksonville Center
02:31PM 29.5919 -82.6753 356° North 218 251 24,100  Level Jacksonville Center
02:32PM 29.6567 -82.6917 348° North 224 258 24,100 -60 Level Jacksonville Center
02:33PM 29.7297 -82.6989 355° North 230 265 24,000  Descending Jacksonville Center
02:34PM 29.7883 -82.7156 346° North 236 272 24,100  Climbing Jacksonville Center
02:35PM 29.8550 -82.7272 351° North 236 272 24,100  Level Jacksonville Center
02:36PM 29.9303 -82.7439 349° North 236 272 24,100  Level Jacksonville Center
02:37PM 29.9972 -82.7558 351° North 236 272 24,100  Level Jacksonville Center
02:38PM 30.0661 -82.7703 350° North 236 272 24,100  Level Jacksonville Center
02:39PM 30.1350 -82.7822 351° North 236 272 24,100  Level Jacksonville Center
02:40PM 30.1997 -82.7964 349° North 236 272 24,100  Level Jacksonville Center
02:41PM 30.2686 -82.8083 351° North 236 272 24,100  Level Jacksonville Center
02:42PM 30.3353 -82.8228 349° North 236 272 24,100  Level Jacksonville Center
02:43PM 30.4044 -82.8372 350° North 241 277 24,100  Level Jacksonville Center
02:44PM 30.4711 -82.8517 349° North 241 277 24,100 -60 Level Jacksonville Center
02:45PM 30.5358 -82.8636 351° North 241 277 24,000  Descending Jacksonville Center
02:46PM 30.6006 -82.8806 347° North 236 272 24,100  Climbing Jacksonville Center
02:47PM 30.6611 -82.8925 350° North 236 272 24,100  Level Jacksonville Center
02:48PM 30.7239 -82.9047 350° North 231 266 24,100  Level Jacksonville Center
02:49PM 30.7886 -82.9192 349° North 231 266 24,100  Level Jacksonville Center
02:50PM 30.8492 -82.9314 350° North 226 260 24,100  Level Jacksonville Center
02:51PM 30.9117 -82.9433 351° North 221 254 24,100  Level Jacksonville Center
02:52PM 30.9744 -82.9531 352° North 221 254 24,100  Level Jacksonville Center
02:53PM 31.0369 -82.9678 349° North 221 254 24,100  Level Jacksonville Center
02:54PM 31.1017 -82.9775 353° North 221 254 24,100  Level Jacksonville Center
02:57PM 31.2478 -83.0114 349° North 224 258 24,100  Level Atlanta Center
02:58PM 31.3106 -83.0253 349° North 224 258 24,100  Level Atlanta Center
02:59PM 31.3711 -83.0369 351° North 224 258 24,100  Level Atlanta Center
03:00PM 31.4339 -83.0508 349° North 224 258 24,100  Level Atlanta Center
03:01PM 31.4944 -83.0622 351° North 219 252 24,100 -60 Level Atlanta Center
03:02PM 31.5550 -83.0739 351° North 219 252 24,000  Descending Atlanta Center
03:03PM 31.6156 -83.0853 351° North 219 252 24,100  Climbing Atlanta Center
03:04PM 31.6783 -83.0994 349° North 219 252 24,100  Level Atlanta Center
03:05PM 31.7411 -83.1108 351° North 219 252 24,100  Level Atlanta Center
03:06PM 31.8058 -83.1272 348° North 219 252 24,100 -60 Level Atlanta Center
03:07PM 31.8686 -83.1389 351° North 224 258 24,000 -60 Descending Atlanta Center
03:08PM 31.9333 -83.1556 348° North 224 258 24,000  Level Atlanta Center
03:09PM 32.0003 -83.1694 350° North 229 264 24,100  Climbing Atlanta Center
03:10PM 32.0650 -83.1811 351° North 234 269 24,100  Level Atlanta Center
03:11PM 32.1297 -83.1953 349° North 239 275 24,100 -60 Level Atlanta Center
03:12PM 32.1967 -83.2092 350° North 239 275 24,000 -60 Descending Atlanta Center
03:13PM 32.2594 -83.2233 349° North 239 275 24,000  Level Atlanta Center
03:14PM 32.3222 -83.2375 349° North 239 275 24,000  Level Atlanta Center
03:15PM 32.3869 -83.2517 350° North 239 275 24,000  Level Atlanta Center
03:16PM 32.4497 -83.2636 351° North 234 269 24,000  Level Atlanta Center
03:17PM 32.5103 -83.2753 351° North 234 269 24,000  Level Atlanta Center
03:18PM 32.5708 -83.2869 351° North 228 262 24,000  Level Atlanta Center
03:19PM 32.6314 -83.3014 349° North 223 257 24,000  Level Atlanta Center
03:20PM 32.6900 -83.3131 350° North 218 251 24,000  Level Atlanta Center
03:21PM 32.7506 -83.3275 349° North 218 251 24,000  Level Atlanta Center
03:22PM 32.8069 -83.3369 352° North 218 251 24,000  Level Atlanta Center
03:23PM 32.8675 -83.3489 351° North 218 251 24,000  Level Atlanta Center
03:24PM 32.9283 -83.3656 347° North 218 251 24,000  Level Atlanta Center
03:25PM 32.9889 -83.3775 351° North 218 251 24,000  Level Atlanta Center
03:26PM 33.0494 -83.3894 351° North 218 251 24,000  Level Atlanta Center
03:27PM 33.1142 -83.4014 351° North 218 251 24,000  Level Atlanta Center
03:28PM 33.1728 -83.4133 350° North 223 257 24,000  Level Atlanta Center
03:29PM 33.2311 -83.4278 348° North 217 250 24,000  Level Atlanta Center
03:30PM 33.2939 -83.4375 353° North 221 254 24,000  Level Atlanta Center
03:31PM 33.3544 -83.4519 349° North 223 257 24,000  Level Atlanta Center
03:32PM 33.4067 -83.4614 351° North 217 250 24,000  Level Atlanta Center
03:33PM 33.4672 -83.4761 349° North 217 250 24,000  Level Atlanta Center
03:34PM 33.5281 -83.4881 351° North 218 251 24,000  Level Atlanta Center
03:35PM 33.5886 -83.5028 349° North 224 258 24,000  Level Atlanta Center
03:36PM 33.6469 -83.5172 348° North 219 252 24,000  Level Atlanta Center
03:37PM 33.7075 -83.5294 350° North 219 252 24,000  Level Atlanta Center
03:38PM 33.7639 -83.5414 350° North 219 252 24,000  Level Atlanta Center
03:39PM 33.8308 -83.5561 350° North 214 246 24,000  Level Atlanta Center
03:40PM 33.8894 -83.5683 350° North 214 246 24,000  Level Atlanta Center
03:41PM 33.9500 -83.5806 350° North 219 252 24,000  Level Atlanta Center
03:42PM 34.0083 -83.5928 350° North 219 252 24,000  Level Atlanta Center
03:43PM 34.0647 -83.6050 350° North 219 252 24,000  Level Atlanta Center
03:44PM 34.1211 -83.6197 348° North 213 245 24,000  Level Atlanta Center
03:45PM 34.1756 -83.6294 352° North 207 238 24,000  Level Atlanta Center
03:46PM 34.2319 -83.6442 348° North 199 229 24,000  Level Atlanta Center
03:47PM 34.2861 -83.6567 349° North 199 229 24,000 -240 Level Atlanta Center
03:48PM 34.3447 -83.6689 350° North 199 229 23,600 -360 Descending Atlanta Center
03:49PM 34.4053 -83.6814 350° North 204 235 23,300 -480 Descending Atlanta Center
03:50PM 34.4678 -83.6936 351° North 217 250 22,700 -600 Descending Atlanta Center
03:51PM 34.5242 -83.7086 348° North 225 259 22,100 -720 Descending Atlanta Center
03:52PM 34.5889 -83.7183 353° North 230 265 21,300 -840 Descending Atlanta Center
03:53PM 34.6558 -83.7383 346° North 243 280 20,500 -600 Descending Atlanta Center
03:54PM 34.7228 -83.7533 350° North 238 274 20,100 -300 Descending Atlanta Center
03:55PM 34.7853 -83.7681 349° North 238 274 20,000 -360 Descending Atlanta Center
03:56PM 34.8500 -83.7756 355° North 238 274 19,400 -1,020 Descending Atlanta Center
03:57PM 34.9211 -83.7906 350° North 244 281 18,000 -1,200 Descending Atlanta Center
03:58PM 34.9942 -83.8106 347° North 257 296 17,000 -1,200 Descending Atlanta Center
03:59PM 35.0672 -83.8281 349° North 263 303 15,700 -1,200 Descending Atlanta Center
04:00PM 35.1381 -83.8458 348° North 258 297 14,700 -1,140 Descending Atlanta Center
04:01PM 35.2092 -83.8583 352° North 258 297 13,500 -1,500 Descending Atlanta Center
04:02PM 35.2781 -83.8758 348° North 258 297 11,800 -1,260 Descending Atlanta Center
04:03PM 35.3447 -83.8886 351° North 252 290 11,000 -420 Descending Atlanta Center
04:04PM 35.4031 -83.8783 North 231 266 11,000 -240 Level Atlanta Center
04:05PM 35.4636 -83.8628 12° North 214 246 10,600 -540 Descending Atlanta Center
04:06PM 35.5261 -83.8472 11° North 219 252 10,000 -840 Descending Atlanta Center
04:07PM 35.5908 -83.8319 11° North 224 258 9,000 -1,200 Descending Atlanta Center
04:08PM 35.6556 -83.8086 16° North 229 264 7,700 -1,500 Descending Atlanta Center
04:09PM 35.7222 -83.8033 North 234 269 6,100 -1,620 Descending Atlanta Center
04:11PM 35.7756 -83.9179 North  Level Estimated
04:18PM 35.8000 -83.9833 North  Level FlightAware Approximate
04:19PM 35.8110 -83.9940 North  Level Estimated
04:20PM 35.8110 -83.9940 North  Level Estimated
04:21PM 35.8110 -83.9940 North  Level Estimated